sensor_id;sensor_type;location;lat;lon;timestamp;pressure;altitude;pressure_sealevel;temperature;humidity
19594;BME280;9944;48.240;16.478;2022-07-06T00:02:06;99999.81;;;20.27;65.40
19594;BME280;9944;48.240;16.478;2022-07-06T00:06:11;99991.19;;;20.19;65.59
19594;BME280;9944;48.240;16.478;2022-07-06T00:10:15;99989.66;;;20.12;66.14
19594;BME280;9944;48.240;16.478;2022-07-06T00:14:18;99984.38;;;20.09;66.42
19594;BME280;9944;48.240;16.478;2022-07-06T00:18:21;99990.72;;;20.05;66.43
19594;BME280;9944;48.240;16.478;2022-07-06T00:22:27;99991.72;;;20.02;66.47
19594;BME280;9944;48.240;16.478;2022-07-06T00:26:30;99991.84;;;19.98;66.85
19594;BME280;9944;48.240;16.478;2022-07-06T00:30:33;99988.41;;;19.94;67.03
19594;BME280;9944;48.240;16.478;2022-07-06T00:34:36;99986.72;;;19.91;67.19
19594;BME280;9944;48.240;16.478;2022-07-06T00:38:42;99993.00;;;19.89;67.03
19594;BME280;9944;48.240;16.478;2022-07-06T00:42:47;100005.53;;;19.87;67.43
19594;BME280;9944;48.240;16.478;2022-07-06T00:46:51;100017.22;;;19.84;67.65
19594;BME280;9944;48.240;16.478;2022-07-06T00:50:54;100019.06;;;19.81;67.90
19594;BME280;9944;48.240;16.478;2022-07-06T00:54:59;100023.63;;;19.77;67.98
19594;BME280;9944;48.240;16.478;2022-07-06T00:59:03;100016.59;;;19.73;68.23
19594;BME280;9944;48.240;16.478;2022-07-06T01:03:06;100019.28;;;19.73;68.56
19594;BME280;9944;48.240;16.478;2022-07-06T01:07:10;100013.88;;;19.76;69.24
19594;BME280;9944;48.240;16.478;2022-07-06T01:11:16;100006.63;;;19.81;69.67
19594;BME280;9944;48.240;16.478;2022-07-06T01:15:23;100005.50;;;19.88;69.90
19594;BME280;9944;48.240;16.478;2022-07-06T01:19:27;99997.28;;;19.94;70.21
19594;BME280;9944;48.240;16.478;2022-07-06T01:23:32;99998.97;;;19.99;70.58
19594;BME280;9944;48.240;16.478;2022-07-06T01:27:36;100000.50;;;20.06;70.67
19594;BME280;9944;48.240;16.478;2022-07-06T01:31:46;99994.03;;;20.13;71.20
19594;BME280;9944;48.240;16.478;2022-07-06T01:35:50;99992.16;;;20.17;71.15
19594;BME280;9944;48.240;16.478;2022-07-06T01:39:57;99994.72;;;20.20;71.33
19594;BME280;9944;48.240;16.478;2022-07-06T01:44:01;99993.81;;;20.21;71.63
19594;BME280;9944;48.240;16.478;2022-07-06T01:48:05;99988.34;;;20.24;71.98
19594;BME280;9944;48.240;16.478;2022-07-06T01:52:09;99986.53;;;20.26;72.25
19594;BME280;9944;48.240;16.478;2022-07-06T01:56:13;99990.09;;;20.25;72.48
19594;BME280;9944;48.240;16.478;2022-07-06T02:00:19;99985.63;;;20.25;72.73
19594;BME280;9944;48.240;16.478;2022-07-06T02:04:25;99987.47;;;20.23;72.94
19594;BME280;9944;48.240;16.478;2022-07-06T02:08:28;99984.91;;;20.20;73.09
19594;BME280;9944;48.240;16.478;2022-07-06T02:12:33;99987.66;;;20.17;72.86
19594;BME280;9944;48.240;16.478;2022-07-06T02:16:37;99988.75;;;20.11;72.71
19594;BME280;9944;48.240;16.478;2022-07-06T02:20:40;100007.50;;;20.10;72.75
19594;BME280;9944;48.240;16.478;2022-07-06T02:24:44;100011.94;;;20.11;72.87
19594;BME280;9944;48.240;16.478;2022-07-06T02:28:50;100030.53;;;20.14;72.85
19594;BME280;9944;48.240;16.478;2022-07-06T02:32:55;100031.41;;;20.15;72.59
19594;BME280;9944;48.240;16.478;2022-07-06T02:36:58;100034.09;;;20.15;72.65
19594;BME280;9944;48.240;16.478;2022-07-06T02:41:03;100025.28;;;20.11;72.69
19594;BME280;9944;48.240;16.478;2022-07-06T02:45:10;100028.88;;;20.10;72.62
19594;BME280;9944;48.240;16.478;2022-07-06T02:49:15;100028.88;;;20.10;72.83
19594;BME280;9944;48.240;16.478;2022-07-06T02:53:18;100023.66;;;20.07;72.85
19594;BME280;9944;48.240;16.478;2022-07-06T02:57:25;100034.41;;;20.04;72.84
19594;BME280;9944;48.240;16.478;2022-07-06T03:01:30;100030.06;;;20.00;73.15
19594;BME280;9944;48.240;16.478;2022-07-06T03:05:33;100024.00;;;19.94;73.16
19594;BME280;9944;48.240;16.478;2022-07-06T03:09:37;100032.00;;;19.94;73.13
19594;BME280;9944;48.240;16.478;2022-07-06T03:13:40;100024.06;;;19.93;73.23
19594;BME280;9944;48.240;16.478;2022-07-06T03:17:45;100020.53;;;19.91;73.15
19594;BME280;9944;48.240;16.478;2022-07-06T03:21:49;100019.63;;;19.92;73.34
19594;BME280;9944;48.240;16.478;2022-07-06T03:25:54;100017.00;;;19.90;73.20
19594;BME280;9944;48.240;16.478;2022-07-06T03:29:57;100031.19;;;19.92;73.26
19594;BME280;9944;48.240;16.478;2022-07-06T03:34:27;100028.44;;;19.96;73.25
19594;BME280;9944;48.240;16.478;2022-07-06T03:38:30;100023.00;;;19.99;73.21
19594;BME280;9944;48.240;16.478;2022-07-06T03:42:35;100018.53;;;19.99;73.06
19594;BME280;9944;48.240;16.478;2022-07-06T03:46:42;100021.16;;;20.01;73.04
19594;BME280;9944;48.240;16.478;2022-07-06T03:50:48;100029.16;;;20.01;72.81
19594;BME280;9944;48.240;16.478;2022-07-06T03:54:52;100028.22;;;20.03;73.02
19594;BME280;9944;48.240;16.478;2022-07-06T03:59:01;100019.28;;;20.03;72.86
19594;BME280;9944;48.240;16.478;2022-07-06T04:03:08;100013.91;;;20.04;72.82
19594;BME280;9944;48.240;16.478;2022-07-06T04:07:19;100012.97;;;20.07;72.65
19594;BME280;9944;48.240;16.478;2022-07-06T04:11:23;100015.50;;;20.10;72.79
19594;BME280;9944;48.240;16.478;2022-07-06T04:15:26;100014.59;;;20.11;72.66
19594;BME280;9944;48.240;16.478;2022-07-06T04:19:30;100018.00;;;20.16;72.90
19594;BME280;9944;48.240;16.478;2022-07-06T04:23:35;100012.56;;;20.19;72.84
19594;BME280;9944;48.240;16.478;2022-07-06T04:27:40;100009.78;;;20.22;72.74
19594;BME280;9944;48.240;16.478;2022-07-06T04:31:45;100012.44;;;20.22;72.87
19594;BME280;9944;48.240;16.478;2022-07-06T04:35:48;100018.66;;;20.24;72.82
19594;BME280;9944;48.240;16.478;2022-07-06T04:39:58;100023.94;;;20.26;72.44
19594;BME280;9944;48.240;16.478;2022-07-06T04:44:01;100024.72;;;20.29;72.07
19594;BME280;9944;48.240;16.478;2022-07-06T04:48:05;100030.06;;;20.29;71.82
19594;BME280;9944;48.240;16.478;2022-07-06T04:52:10;100028.13;;;20.35;71.68
19594;BME280;9944;48.240;16.478;2022-07-06T04:56:15;100042.22;;;20.40;71.34
19594;BME280;9944;48.240;16.478;2022-07-06T05:00:19;100036.75;;;20.43;71.09
19594;BME280;9944;48.240;16.478;2022-07-06T05:04:24;100039.22;;;20.49;70.93
19594;BME280;9944;48.240;16.478;2022-07-06T05:08:27;100039.97;;;20.54;70.72
19594;BME280;9944;48.240;16.478;2022-07-06T05:12:32;100035.28;;;20.62;70.39
19594;BME280;9944;48.240;16.478;2022-07-06T05:16:35;100040.44;;;20.67;70.20
19594;BME280;9944;48.240;16.478;2022-07-06T05:20:40;100037.41;;;20.78;69.84
19594;BME280;9944;48.240;16.478;2022-07-06T05:24:44;100029.91;;;20.89;69.76
19594;BME280;9944;48.240;16.478;2022-07-06T05:28:48;100031.94;;;21.08;69.48
19594;BME280;9944;48.240;16.478;2022-07-06T05:32:55;100040.97;;;21.30;69.56
19594;BME280;9944;48.240;16.478;2022-07-06T05:36:58;100027.47;;;21.58;68.96
19594;BME280;9944;48.240;16.478;2022-07-06T05:41:02;100035.38;;;21.85;68.15
19594;BME280;9944;48.240;16.478;2022-07-06T05:45:09;100038.63;;;22.17;67.63
19594;BME280;9944;48.240;16.478;2022-07-06T05:49:13;100040.03;;;22.49;66.90
19594;BME280;9944;48.240;16.478;2022-07-06T05:53:33;100041.63;;;22.75;65.97
19594;BME280;9944;48.240;16.478;2022-07-06T05:57:37;100032.53;;;23.00;65.06
19594;BME280;9944;48.240;16.478;2022-07-06T06:01:44;100044.69;;;23.29;63.72
19594;BME280;9944;48.240;16.478;2022-07-06T06:05:52;100039.97;;;23.55;62.83
19594;BME280;9944;48.240;16.478;2022-07-06T06:09:57;100031.66;;;23.82;62.18
19594;BME280;9944;48.240;16.478;2022-07-06T06:14:01;100030.47;;;24.06;61.62
19594;BME280;9944;48.240;16.478;2022-07-06T06:18:08;100039.25;;;24.29;61.10
19594;BME280;9944;48.240;16.478;2022-07-06T06:22:14;100051.00;;;24.46;60.15
19594;BME280;9944;48.240;16.478;2022-07-06T06:26:18;100066.41;;;24.42;60.04
19594;BME280;9944;48.240;16.478;2022-07-06T06:30:21;100076.31;;;24.22;58.99
19594;BME280;9944;48.240;16.478;2022-07-06T06:34:26;100075.88;;;24.13;59.60
19594;BME280;9944;48.240;16.478;2022-07-06T06:38:29;100086.22;;;24.03;59.26
19594;BME280;9944;48.240;16.478;2022-07-06T06:42:34;100088.38;;;24.14;59.79
19594;BME280;9944;48.240;16.478;2022-07-06T06:46:41;100093.69;;;24.34;59.67
19594;BME280;9944;48.240;16.478;2022-07-06T06:50:46;100081.38;;;24.48;58.71
19594;BME280;9944;48.240;16.478;2022-07-06T06:54:50;100081.91;;;24.56;57.77
19594;BME280;9944;48.240;16.478;2022-07-06T06:58:53;100077.91;;;24.65;57.47
19594;BME280;9944;48.240;16.478;2022-07-06T07:03:17;100064.72;;;24.77;57.18
19594;BME280;9944;48.240;16.478;2022-07-06T07:07:21;100069.22;;;24.94;56.88
19594;BME280;9944;48.240;16.478;2022-07-06T07:11:25;100065.69;;;25.11;56.41
19594;BME280;9944;48.240;16.478;2022-07-06T07:15:28;100054.34;;;25.22;55.58
19594;BME280;9944;48.240;16.478;2022-07-06T07:19:31;100069.81;;;25.36;55.24
19594;BME280;9944;48.240;16.478;2022-07-06T07:23:36;100062.59;;;25.54;55.06
19594;BME280;9944;48.240;16.478;2022-07-06T07:27:39;100062.81;;;25.67;54.76
19594;BME280;9944;48.240;16.478;2022-07-06T07:31:43;100064.03;;;25.77;54.53
19594;BME280;9944;48.240;16.478;2022-07-06T07:35:46;100066.84;;;25.91;53.93
19594;BME280;9944;48.240;16.478;2022-07-06T07:39:50;100074.13;;;26.07;53.50
19594;BME280;9944;48.240;16.478;2022-07-06T07:43:54;100070.56;;;26.22;53.07
19594;BME280;9944;48.240;16.478;2022-07-06T07:47:57;100062.75;;;26.34;52.36
19594;BME280;9944;48.240;16.478;2022-07-06T07:52:01;100059.34;;;26.46;52.03
19594;BME280;9944;48.240;16.478;2022-07-06T07:56:06;100047.66;;;26.61;51.99
19594;BME280;9944;48.240;16.478;2022-07-06T08:00:10;100038.16;;;26.86;51.29
19594;BME280;9944;48.240;16.478;2022-07-06T08:04:14;100039.53;;;26.93;50.12
19594;BME280;9944;48.240;16.478;2022-07-06T08:08:17;100050.88;;;26.84;49.56
19594;BME280;9944;48.240;16.478;2022-07-06T08:12:22;100047.44;;;26.96;50.02
19594;BME280;9944;48.240;16.478;2022-07-06T08:16:25;100055.31;;;27.15;49.35
19594;BME280;9944;48.240;16.478;2022-07-06T08:20:28;100061.63;;;27.30;48.23
19594;BME280;9944;48.240;16.478;2022-07-06T08:24:32;100054.34;;;27.47;48.21
19594;BME280;9944;48.240;16.478;2022-07-06T08:28:36;100056.47;;;27.56;46.88
19594;BME280;9944;48.240;16.478;2022-07-06T08:32:40;100053.75;;;27.56;47.03
19594;BME280;9944;48.240;16.478;2022-07-06T08:37:03;100054.03;;;27.51;46.26
19594;BME280;9944;48.240;16.478;2022-07-06T08:41:07;100059.84;;;27.59;47.15
19594;BME280;9944;48.240;16.478;2022-07-06T08:45:12;100072.69;;;27.70;46.86
19594;BME280;9944;48.240;16.478;2022-07-06T08:49:16;100063.03;;;27.80;46.41
19594;BME280;9944;48.240;16.478;2022-07-06T08:53:20;100071.91;;;27.83;46.37
19594;BME280;9944;48.240;16.478;2022-07-06T08:57:25;100067.38;;;27.69;46.73
19594;BME280;9944;48.240;16.478;2022-07-06T09:01:30;100078.69;;;27.61;47.21
19594;BME280;9944;48.240;16.478;2022-07-06T09:05:35;100079.25;;;27.52;47.02
19594;BME280;9944;48.240;16.478;2022-07-06T09:09:39;100068.53;;;27.65;48.07
19594;BME280;9944;48.240;16.478;2022-07-06T09:13:43;100062.66;;;27.87;46.27
19594;BME280;9944;48.240;16.478;2022-07-06T09:17:48;100069.59;;;27.91;45.91
19594;BME280;9944;48.240;16.478;2022-07-06T09:21:51;100057.84;;;28.06;45.51
19594;BME280;9944;48.240;16.478;2022-07-06T09:25:55;100063.44;;;28.17;45.29
19594;BME280;9944;48.240;16.478;2022-07-06T09:30:00;100054.00;;;28.38;44.65
19594;BME280;9944;48.240;16.478;2022-07-06T09:34:06;100067.25;;;28.42;43.88
19594;BME280;9944;48.240;16.478;2022-07-06T09:38:13;100058.34;;;28.54;43.66
19594;BME280;9944;48.240;16.478;2022-07-06T09:42:16;100059.47;;;28.65;43.28
19594;BME280;9944;48.240;16.478;2022-07-06T09:46:26;100052.72;;;28.58;43.70
19594;BME280;9944;48.240;16.478;2022-07-06T09:50:38;100062.78;;;28.41;44.03
19594;BME280;9944;48.240;16.478;2022-07-06T09:54:41;100057.22;;;28.30;43.85
19594;BME280;9944;48.240;16.478;2022-07-06T09:58:44;100049.34;;;28.12;43.51
19594;BME280;9944;48.240;16.478;2022-07-06T10:03:04;100043.53;;;28.04;44.47
19594;BME280;9944;48.240;16.478;2022-07-06T10:07:10;100047.19;;;28.03;43.55
19594;BME280;9944;48.240;16.478;2022-07-06T10:11:14;100044.13;;;28.09;43.53
19594;BME280;9944;48.240;16.478;2022-07-06T10:15:18;100055.47;;;28.29;43.50
19594;BME280;9944;48.240;16.478;2022-07-06T10:19:21;100051.19;;;28.39;43.47
19594;BME280;9944;48.240;16.478;2022-07-06T10:23:26;100053.00;;;28.53;44.31
19594;BME280;9944;48.240;16.478;2022-07-06T10:27:30;100032.94;;;28.70;44.76
19594;BME280;9944;48.240;16.478;2022-07-06T10:31:36;100033.72;;;28.72;44.37
19594;BME280;9944;48.240;16.478;2022-07-06T10:35:40;100028.91;;;28.63;44.32
19594;BME280;9944;48.240;16.478;2022-07-06T10:39:48;100042.84;;;28.57;43.74
19594;BME280;9944;48.240;16.478;2022-07-06T10:44:16;100054.66;;;28.55;44.25
19594;BME280;9944;48.240;16.478;2022-07-06T10:48:20;100068.56;;;28.64;44.41
19594;BME280;9944;48.240;16.478;2022-07-06T10:52:47;100072.50;;;28.72;44.10
19594;BME280;9944;48.240;16.478;2022-07-06T10:56:52;100070.81;;;28.84;44.00
19594;BME280;9944;48.240;16.478;2022-07-06T11:00:55;100072.13;;;28.91;43.91
19594;BME280;9944;48.240;16.478;2022-07-06T11:05:00;100059.75;;;28.87;44.21
19594;BME280;9944;48.240;16.478;2022-07-06T11:09:05;100063.06;;;28.78;44.29
19594;BME280;9944;48.240;16.478;2022-07-06T11:13:24;100064.13;;;28.63;44.40
19594;BME280;9944;48.240;16.478;2022-07-06T11:17:28;100078.31;;;28.52;43.80
19594;BME280;9944;48.240;16.478;2022-07-06T11:21:34;100084.16;;;28.46;44.68
19594;BME280;9944;48.240;16.478;2022-07-06T11:25:37;100106.31;;;28.38;44.07
19594;BME280;9944;48.240;16.478;2022-07-06T11:29:42;100113.41;;;27.97;42.85
19594;BME280;9944;48.240;16.478;2022-07-06T11:33:47;100106.66;;;27.46;43.71
19594;BME280;9944;48.240;16.478;2022-07-06T11:37:50;100114.38;;;26.91;45.90
19594;BME280;9944;48.240;16.478;2022-07-06T11:41:54;100123.69;;;26.38;48.91
19594;BME280;9944;48.240;16.478;2022-07-06T11:45:58;100111.09;;;26.05;51.67
19594;BME280;9944;48.240;16.478;2022-07-06T11:50:02;100108.06;;;25.93;54.13
19594;BME280;9944;48.240;16.478;2022-07-06T11:54:09;100110.16;;;26.06;56.10
19594;BME280;9944;48.240;16.478;2022-07-06T11:58:13;100102.16;;;26.20;57.27
19594;BME280;9944;48.240;16.478;2022-07-06T12:02:18;100094.94;;;26.37;59.04
19594;BME280;9944;48.240;16.478;2022-07-06T12:06:23;100092.53;;;26.48;58.82
19594;BME280;9944;48.240;16.478;2022-07-06T12:10:31;100075.47;;;26.63;58.49
19594;BME280;9944;48.240;16.478;2022-07-06T12:14:37;100069.63;;;26.71;57.89
19594;BME280;9944;48.240;16.478;2022-07-06T12:18:42;100064.47;;;26.82;58.58
19594;BME280;9944;48.240;16.478;2022-07-06T12:22:45;100070.69;;;26.99;58.01
19594;BME280;9944;48.240;16.478;2022-07-06T12:26:50;100051.03;;;27.11;57.11
19594;BME280;9944;48.240;16.478;2022-07-06T12:30:53;100050.13;;;27.27;56.53
19594;BME280;9944;48.240;16.478;2022-07-06T12:35:05;100035.59;;;27.29;55.25
19594;BME280;9944;48.240;16.478;2022-07-06T12:39:10;100040.09;;;27.29;54.95
19594;BME280;9944;48.240;16.478;2022-07-06T12:43:13;100024.94;;;27.26;55.12
19594;BME280;9944;48.240;16.478;2022-07-06T12:47:18;100033.63;;;27.17;51.97
19594;BME280;9944;48.240;16.478;2022-07-06T12:51:48;100028.34;;;26.99;50.69
19594;BME280;9944;48.240;16.478;2022-07-06T12:56:09;100037.25;;;27.01;51.27
19594;BME280;9944;48.240;16.478;2022-07-06T13:00:13;100033.19;;;27.09;48.13
19594;BME280;9944;48.240;16.478;2022-07-06T13:04:17;100028.00;;;27.20;48.87
19594;BME280;9944;48.240;16.478;2022-07-06T13:08:22;100024.88;;;27.42;47.75
19594;BME280;9944;48.240;16.478;2022-07-06T13:12:25;100032.22;;;27.54;45.77
19594;BME280;9944;48.240;16.478;2022-07-06T13:16:37;100034.66;;;27.73;44.89
19594;BME280;9944;48.240;16.478;2022-07-06T13:20:40;100029.13;;;27.89;43.27
19594;BME280;9944;48.240;16.478;2022-07-06T13:24:46;100031.56;;;27.94;42.19
19594;BME280;9944;48.240;16.478;2022-07-06T13:28:49;100030.09;;;28.03;40.69
19594;BME280;9944;48.240;16.478;2022-07-06T13:32:52;100030.78;;;28.06;38.47
19594;BME280;9944;48.240;16.478;2022-07-06T13:36:55;100026.50;;;28.16;39.74
19594;BME280;9944;48.240;16.478;2022-07-06T13:41:00;100045.84;;;28.25;39.06
19594;BME280;9944;48.240;16.478;2022-07-06T13:45:04;100031.50;;;28.23;39.38
19594;BME280;9944;48.240;16.478;2022-07-06T13:49:07;100030.44;;;28.25;39.31
19594;BME280;9944;48.240;16.478;2022-07-06T13:53:11;100032.31;;;28.10;38.87
19594;BME280;9944;48.240;16.478;2022-07-06T13:57:15;100025.97;;;27.97;39.97
19594;BME280;9944;48.240;16.478;2022-07-06T14:01:22;100028.84;;;27.79;39.49
19594;BME280;9944;48.240;16.478;2022-07-06T14:05:32;100039.88;;;27.76;38.74
19594;BME280;9944;48.240;16.478;2022-07-06T14:09:35;100031.44;;;27.81;39.23
19594;BME280;9944;48.240;16.478;2022-07-06T14:13:40;100031.72;;;27.91;39.17
19594;BME280;9944;48.240;16.478;2022-07-06T14:17:44;100036.22;;;27.92;38.55
19594;BME280;9944;48.240;16.478;2022-07-06T14:21:49;100032.81;;;27.88;38.05
19594;BME280;9944;48.240;16.478;2022-07-06T14:25:53;100047.72;;;27.95;37.95
19594;BME280;9944;48.240;16.478;2022-07-06T14:29:58;100046.81;;;27.95;38.01
19594;BME280;9944;48.240;16.478;2022-07-06T14:34:01;100050.09;;;27.86;37.19
19594;BME280;9944;48.240;16.478;2022-07-06T14:38:05;100044.50;;;27.74;37.49
19594;BME280;9944;48.240;16.478;2022-07-06T14:42:09;100053.97;;;27.67;37.39
19594;BME280;9944;48.240;16.478;2022-07-06T14:46:13;100057.63;;;27.52;38.45
19594;BME280;9944;48.240;16.478;2022-07-06T14:50:17;100072.09;;;27.36;38.97
19594;BME280;9944;48.240;16.478;2022-07-06T14:54:20;100081.25;;;27.18;40.04
19594;BME280;9944;48.240;16.478;2022-07-06T14:58:24;100077.38;;;26.77;41.66
19594;BME280;9944;48.240;16.478;2022-07-06T15:02:29;100077.44;;;26.44;42.60
19594;BME280;9944;48.240;16.478;2022-07-06T15:06:32;100065.25;;;26.21;43.40
19594;BME280;9944;48.240;16.478;2022-07-06T15:10:55;100057.16;;;26.05;44.26
19594;BME280;9944;48.240;16.478;2022-07-06T15:14:59;100047.59;;;25.99;44.23
19594;BME280;9944;48.240;16.478;2022-07-06T15:19:04;100048.13;;;26.06;44.83
19594;BME280;9944;48.240;16.478;2022-07-06T15:23:08;100044.66;;;26.20;44.95
19594;BME280;9944;48.240;16.478;2022-07-06T15:27:11;100036.56;;;26.36;45.57
19594;BME280;9944;48.240;16.478;2022-07-06T15:31:14;100029.28;;;26.52;45.07
19594;BME280;9944;48.240;16.478;2022-07-06T15:35:25;100028.50;;;26.66;44.85
19594;BME280;9944;48.240;16.478;2022-07-06T15:39:28;100013.59;;;26.75;44.68
19594;BME280;9944;48.240;16.478;2022-07-06T15:43:32;100009.56;;;26.82;44.93
19594;BME280;9944;48.240;16.478;2022-07-06T15:47:35;100014.09;;;26.81;44.76
19594;BME280;9944;48.240;16.478;2022-07-06T15:51:40;100007.94;;;26.79;44.39
19594;BME280;9944;48.240;16.478;2022-07-06T15:55:43;99998.75;;;26.82;44.47
19594;BME280;9944;48.240;16.478;2022-07-06T15:59:54;99994.94;;;26.86;44.13
19594;BME280;9944;48.240;16.478;2022-07-06T16:03:58;100005.56;;;26.89;43.81
19594;BME280;9944;48.240;16.478;2022-07-06T16:08:03;100001.28;;;26.85;43.37
19594;BME280;9944;48.240;16.478;2022-07-06T16:12:27;100000.69;;;26.80;42.05
19594;BME280;9944;48.240;16.478;2022-07-06T16:16:30;99997.50;;;26.73;42.98
19594;BME280;9944;48.240;16.478;2022-07-06T16:20:35;100001.06;;;26.74;42.09
19594;BME280;9944;48.240;16.478;2022-07-06T16:24:39;99999.50;;;26.70;42.14
19594;BME280;9944;48.240;16.478;2022-07-06T16:28:42;99996.03;;;26.67;42.12
19594;BME280;9944;48.240;16.478;2022-07-06T16:32:45;99990.03;;;26.62;42.27
19594;BME280;9944;48.240;16.478;2022-07-06T16:36:49;99985.94;;;26.55;41.62
19594;BME280;9944;48.240;16.478;2022-07-06T16:40:54;99978.97;;;26.51;41.34
19594;BME280;9944;48.240;16.478;2022-07-06T16:44:57;99981.09;;;26.46;41.31
19594;BME280;9944;48.240;16.478;2022-07-06T16:49:01;99975.69;;;26.46;42.20
19594;BME280;9944;48.240;16.478;2022-07-06T16:53:04;99976.72;;;26.43;42.59
19594;BME280;9944;48.240;16.478;2022-07-06T16:57:09;99978.66;;;26.41;42.13
19594;BME280;9944;48.240;16.478;2022-07-06T17:01:12;99990.69;;;26.36;42.12
19594;BME280;9944;48.240;16.478;2022-07-06T17:05:16;99988.16;;;26.33;42.32
19594;BME280;9944;48.240;16.478;2022-07-06T17:09:19;99980.06;;;26.33;42.76
19594;BME280;9944;48.240;16.478;2022-07-06T17:13:24;99995.47;;;26.30;42.05
19594;BME280;9944;48.240;16.478;2022-07-06T17:17:28;99995.47;;;26.30;42.26
19594;BME280;9944;48.240;16.478;2022-07-06T17:21:32;99996.59;;;26.26;42.27
19594;BME280;9944;48.240;16.478;2022-07-06T17:25:35;99996.59;;;26.26;42.36
19594;BME280;9944;48.240;16.478;2022-07-06T17:29:39;99995.97;;;26.21;42.71
19594;BME280;9944;48.240;16.478;2022-07-06T17:33:43;99997.81;;;26.21;42.75
19594;BME280;9944;48.240;16.478;2022-07-06T17:37:48;99995.97;;;26.21;42.62
19594;BME280;9944;48.240;16.478;2022-07-06T17:41:56;99993.19;;;26.23;43.49
19594;BME280;9944;48.240;16.478;2022-07-06T17:46:00;99995.97;;;26.21;43.31
19594;BME280;9944;48.240;16.478;2022-07-06T17:50:04;99997.72;;;26.22;44.19
19594;BME280;9944;48.240;16.478;2022-07-06T17:54:07;99999.66;;;26.20;43.94
19594;BME280;9944;48.240;16.478;2022-07-06T17:58:11;100008.06;;;26.14;43.65
19594;BME280;9944;48.240;16.478;2022-07-06T18:02:17;99997.03;;;26.03;43.88
19594;BME280;9944;48.240;16.478;2022-07-06T18:06:21;100004.59;;;25.96;43.92
19594;BME280;9944;48.240;16.478;2022-07-06T18:10:24;100010.50;;;25.87;44.33
19594;BME280;9944;48.240;16.478;2022-07-06T18:14:27;100011.69;;;25.81;44.10
19594;BME280;9944;48.240;16.478;2022-07-06T18:18:32;100016.38;;;25.78;44.28
19594;BME280;9944;48.240;16.478;2022-07-06T18:22:36;100008.72;;;25.70;44.23
19594;BME280;9944;48.240;16.478;2022-07-06T18:26:39;100010.34;;;25.56;44.52
19594;BME280;9944;48.240;16.478;2022-07-06T18:30:43;100008.16;;;25.47;44.84
19594;BME280;9944;48.240;16.478;2022-07-06T18:34:49;100012.28;;;25.37;45.26
19594;BME280;9944;48.240;16.478;2022-07-06T18:38:52;99999.06;;;25.32;45.36
19594;BME280;9944;48.240;16.478;2022-07-06T18:42:55;99998.34;;;25.29;45.79
19594;BME280;9944;48.240;16.478;2022-07-06T18:46:59;100003.75;;;25.29;45.89
19594;BME280;9944;48.240;16.478;2022-07-06T18:51:04;100004.06;;;25.23;46.66
19594;BME280;9944;48.240;16.478;2022-07-06T18:55:08;100011.50;;;25.17;46.52
19594;BME280;9944;48.240;16.478;2022-07-06T18:59:11;100006.44;;;25.11;47.02
19594;BME280;9944;48.240;16.478;2022-07-06T19:03:14;100012.16;;;25.05;47.66
19594;BME280;9944;48.240;16.478;2022-07-06T19:07:20;100009.75;;;24.99;48.05
19594;BME280;9944;48.240;16.478;2022-07-06T19:11:24;100014.75;;;24.89;48.22
19594;BME280;9944;48.240;16.478;2022-07-06T19:15:27;100021.47;;;24.80;48.58
19594;BME280;9944;48.240;16.478;2022-07-06T19:19:30;100023.78;;;24.71;48.96
19594;BME280;9944;48.240;16.478;2022-07-06T19:23:35;100017.97;;;24.61;49.17
19594;BME280;9944;48.240;16.478;2022-07-06T19:27:39;100028.22;;;24.53;49.78
19594;BME280;9944;48.240;16.478;2022-07-06T19:31:42;100027.75;;;24.44;50.13
19594;BME280;9944;48.240;16.478;2022-07-06T19:35:46;100034.38;;;24.37;50.45
19594;BME280;9944;48.240;16.478;2022-07-06T19:39:51;100040.25;;;24.27;50.95
19594;BME280;9944;48.240;16.478;2022-07-06T19:43:54;100039.69;;;24.20;50.69
19594;BME280;9944;48.240;16.478;2022-07-06T19:47:58;100042.59;;;24.15;51.45
19594;BME280;9944;48.240;16.478;2022-07-06T19:52:01;100043.78;;;24.10;51.61
19594;BME280;9944;48.240;16.478;2022-07-06T19:56:06;100046.75;;;24.03;51.95
19594;BME280;9944;48.240;16.478;2022-07-06T20:00:12;100047.03;;;23.97;51.81
19594;BME280;9944;48.240;16.478;2022-07-06T20:04:15;100055.47;;;23.90;52.08
19594;BME280;9944;48.240;16.478;2022-07-06T20:08:18;100059.31;;;23.84;52.59
19594;BME280;9944;48.240;16.478;2022-07-06T20:12:23;100057.97;;;23.74;52.58
19594;BME280;9944;48.240;16.478;2022-07-06T20:16:28;100048.44;;;23.66;53.19
19594;BME280;9944;48.240;16.478;2022-07-06T20:20:31;100051.38;;;23.60;53.27
19594;BME280;9944;48.240;16.478;2022-07-06T20:24:35;100051.69;;;23.54;53.36
19594;BME280;9944;48.240;16.478;2022-07-06T20:28:39;100050.06;;;23.50;53.60
19594;BME280;9944;48.240;16.478;2022-07-06T20:32:43;100055.72;;;23.44;53.98
19594;BME280;9944;48.240;16.478;2022-07-06T20:36:46;100049.63;;;23.40;54.12
19594;BME280;9944;48.240;16.478;2022-07-06T20:40:49;100056.84;;;23.38;54.29
19594;BME280;9944;48.240;16.478;2022-07-06T20:44:53;100059.47;;;23.40;54.69
19594;BME280;9944;48.240;16.478;2022-07-06T20:48:57;100058.72;;;23.36;54.69
19594;BME280;9944;48.240;16.478;2022-07-06T20:53:00;100058.88;;;23.33;54.98
19594;BME280;9944;48.240;16.478;2022-07-06T20:57:04;100060.00;;;23.27;54.98
19594;BME280;9944;48.240;16.478;2022-07-06T21:01:09;100055.78;;;23.22;54.83
19594;BME280;9944;48.240;16.478;2022-07-06T21:05:13;100055.97;;;23.17;55.06
19594;BME280;9944;48.240;16.478;2022-07-06T21:09:17;100056.16;;;23.14;55.20
19594;BME280;9944;48.240;16.478;2022-07-06T21:13:20;100052.69;;;23.10;55.61
19594;BME280;9944;48.240;16.478;2022-07-06T21:17:24;100052.94;;;23.04;55.46
19594;BME280;9944;48.240;16.478;2022-07-06T21:21:28;100058.72;;;22.95;56.09
19594;BME280;9944;48.240;16.478;2022-07-06T21:25:31;100066.03;;;22.91;56.33